Time;durP1;ratioP1;P1;durP2;ratioP2;P2;SDS_P1;SDS_P2;PMS_P1;PMS_P2;Temp;Humidity;BMP_temperature;BMP_pressure;BME280_temperature;BME280_humidity;BME280_pressure;Samples;Min_cycle;Max_cycle;Signal;HPM_P1;HPM_P2
2022/01/25 00:31:13;;;;;;;41.13;21.83;;;-0.70;99.90;;;-1.88;100.00;99136.13;5025021;28;20247;-69
2022/01/25 00:33:48;;;;;;;40.90;20.20;;;-0.80;99.90;;;-1.87;100.00;99137.88;5029348;28;20135;-67
2022/01/25 00:36:18;;;;;;;50.97;24.75;;;-0.70;99.90;;;-1.84;100.00;99132.03;5026858;28;20211;-68
2022/01/25 00:38:47;;;;;;;37.58;21.38;;;-0.80;99.90;;;-1.81;100.00;99134.66;5027541;28;20053;-68
2022/01/25 00:41:15;;;;;;;31.38;17.10;;;-0.70;99.90;;;-1.84;100.00;99132.88;5025662;28;20049;-68
2022/01/25 00:43:43;;;;;;;33.42;16.92;;;-0.70;99.90;;;-1.86;100.00;99137.06;5027323;28;20133;-68
2022/01/25 00:46:12;;;;;;;36.15;20.02;;;-0.80;99.90;;;-1.83;100.00;99132.03;5027365;28;20114;-68
2022/01/25 00:54:03;;;;;;;41.88;21.23;;;-0.80;99.90;;;-1.92;100.00;99139.41;5028080;28;20060;-67
2022/01/25 00:56:32;;;;;;;42.88;23.20;;;-0.80;99.90;;;-2.00;100.00;99130.66;5027105;28;20511;-67
2022/01/25 00:59:02;;;;;;;46.00;23.00;;;-0.90;99.90;;;-2.02;100.00;99122.97;5026473;28;21534;-68
2022/01/25 01:01:30;;;;;;;33.85;19.27;;;-0.90;99.90;;;-1.99;100.00;99129.84;5027492;28;20041;-68
2022/01/25 01:03:57;;;;;;;41.15;21.23;;;-0.80;99.90;;;-2.00;100.00;99123.88;5026386;28;20043;-67
2022/01/25 01:06:25;;;;;;;43.67;20.35;;;-0.90;99.90;;;-2.02;100.00;99127.22;5028498;28;20484;-67
2022/01/25 01:08:52;;;;;;;39.35;21.05;;;-0.90;99.90;;;-2.05;100.00;99120.34;5028413;28;20053;-67
2022/01/25 01:11:28;;;;;;;43.40;21.60;;;-0.90;99.90;;;-2.09;100.00;99127.81;5026810;28;20151;-67
2022/01/25 01:14:16;;;;;;;45.42;22.80;;;-0.90;99.90;;;-1.99;100.00;99128.16;5026332;28;20126;-67
2022/01/25 01:43:35;;;;;;;36.53;18.08;;;-1.00;99.90;;;-1.94;100.00;99148.66;5042097;28;20482;-67
2022/01/25 01:53:54;;;;;;;39.20;20.70;;;-0.80;99.90;;;-2.02;100.00;99158.59;5027831;28;20052;-67
2022/01/25 01:56:23;;;;;;;42.88;21.33;;;-0.80;99.90;;;-1.91;100.00;99164.03;5028017;28;20132;-67
2022/01/25 01:58:57;;;;;;;53.88;24.48;;;-0.80;99.90;;;-1.93;100.00;99163.97;5023801;28;20052;-67
2022/01/25 02:01:27;;;;;;;46.90;22.80;;;-0.80;99.90;;;-1.95;100.00;99157.13;5026842;28;20124;-67
2022/01/25 02:03:55;;;;;;;75.22;26.50;;;-0.80;99.90;;;-1.83;100.00;99160.03;5025635;28;20041;-68
2022/01/25 02:06:22;;;;;;;51.58;23.65;;;-0.70;99.90;;;-1.98;100.00;99160.44;5027978;28;20549;-67
2022/01/25 02:08:49;;;;;;;54.08;25.15;;;-0.80;99.90;;;-1.95;100.00;99160.53;5027922;28;20128;-68
2022/01/25 02:11:17;;;;;;;58.10;25.67;;;-0.70;99.90;;;-2.01;100.00;99156.91;5028461;28;20088;-68
2022/01/25 02:13:46;;;;;;;52.25;23.08;;;-0.80;99.90;;;-2.11;100.00;99150.66;5026750;28;20498;-67
2022/01/25 02:16:39;;;;;;;40.38;21.13;;;-0.90;99.90;;;-2.10;100.00;99147.28;5027072;28;20136;-65
2022/01/25 02:24:44;;;;;;;55.22;24.38;;;-1.00;99.90;;;-2.20;100.00;99146.13;5027409;28;20136;-68
2022/01/25 02:27:12;;;;;;;51.55;23.50;;;-1.00;99.90;;;-2.12;100.00;99146.41;5024993;28;20053;-67
2022/01/25 02:29:40;;;;;;;66.50;26.02;;;-0.90;99.90;;;-2.10;100.00;99142.19;5026902;28;20057;-68
2022/01/25 02:32:08;;;;;;;56.58;26.55;;;-0.90;99.90;;;-2.09;100.00;99135.47;5027010;28;20597;-67
2022/01/25 02:34:36;;;;;;;38.83;20.48;;;-0.90;99.90;;;-2.01;100.00;99134.88;5027067;28;20128;-68
2022/01/25 02:37:09;;;;;;;42.83;21.83;;;-0.80;99.90;;;-2.00;100.00;99138.31;5028029;28;20494;-67
2022/01/25 02:39:37;;;;;;;45.72;20.70;;;-0.80;99.90;;;-1.88;100.00;99136.13;5027225;28;20141;-68
2022/01/25 02:42:06;;;;;;;36.45;19.52;;;-0.80;99.90;;;-1.84;100.00;99132.88;5025965;28;20103;-67
2022/01/25 02:44:36;;;;;;;40.38;19.50;;;-0.70;99.90;;;-1.79;100.00;99131.34;5026924;28;20401;-67
2022/01/25 02:49:50;;;;;;;37.42;18.65;;;-0.60;99.90;;;-1.65;100.00;99136.84;5027165;28;20128;-67
2022/01/25 02:52:18;;;;;;;42.88;19.70;;;-0.50;99.90;;;-1.72;100.00;99130.69;5027069;28;20124;-67
2022/01/25 02:54:45;;;;;;;57.20;23.25;;;-0.50;99.90;;;-1.66;100.00;99135.13;5026879;28;20489;-67
2022/01/25 02:57:13;;;;;;;50.90;20.00;;;-0.50;99.90;;;-1.59;100.00;99133.66;5027386;28;20038;-67
2022/01/25 02:59:40;;;;;;;143.90;27.02;;;-0.40;99.90;;;-1.63;100.00;99129.28;5025029;28;20460;-67
2022/01/25 03:02:07;;;;;;;291.10;32.15;;;-0.40;99.90;;;-1.73;100.00;99133.22;5025546;28;20730;-67
2022/01/25 03:04:35;;;;;;;298.48;34.00;;;-0.40;99.90;;;-1.75;100.00;99138.25;5027218;28;20128;-67
2022/01/25 03:07:02;;;;;;;342.95;33.60;;;-0.50;99.90;;;-1.75;100.00;99143.34;5029797;28;20155;-67
2022/01/25 03:09:30;;;;;;;272.30;31.42;;;-0.40;99.90;;;-1.76;100.00;99143.28;5030293;28;20561;-67
2022/01/25 03:11:59;;;;;;;238.45;27.48;;;-0.50;99.90;;;-1.76;100.00;99144.16;5027661;28;20124;-68
2022/01/25 03:14:31;;;;;;;360.33;29.67;;;-0.50;99.90;;;-1.73;100.00;99134.09;5028210;28;20056;-67
2022/01/25 03:22:16;;;;;;;51.60;16.60;;;-0.40;99.90;;;-1.46;100.00;99128.09;5028684;28;20073;-68
2022/01/25 03:24:45;;;;;;;270.40;27.63;;;-0.40;99.90;;;-1.63;100.00;99124.19;5029612;28;20045;-68
2022/01/25 03:27:12;;;;;;;422.33;35.67;;;-0.40;99.90;;;-1.66;100.00;99124.09;5031098;28;20068;-67
2022/01/25 03:29:39;;;;;;;397.40;33.85;;;-0.40;99.90;;;-1.71;100.00;99127.38;5027793;28;20136;-67
2022/01/25 03:32:06;;;;;;;343.23;27.83;;;-0.40;99.90;;;-1.65;100.00;99128.34;5030152;28;20425;-68
2022/01/25 03:34:34;;;;;;;618.53;48.38;;;-0.40;99.90;;;-1.75;100.00;99124.66;5028056;28;20057;-68
2022/01/25 03:37:02;;;;;;;646.95;43.15;;;-0.40;99.90;;;-1.86;100.00;99120.94;5030821;28;20123;-68
2022/01/25 03:39:29;;;;;;;715.72;53.67;;;-0.50;99.90;;;-1.86;100.00;99124.31;5030215;28;20095;-68
2022/01/25 03:41:56;;;;;;;698.90;50.88;;;-0.50;99.90;;;-1.89;100.00;99121.69;5030132;28;20140;-67
2022/01/25 03:44:23;;;;;;;454.55;35.42;;;-0.50;99.90;;;-1.73;100.00;99116.25;5023234;28;20136;-67
2022/01/25 03:52:06;;;;;;;247.32;19.45;;;-0.40;99.90;;;-1.51;100.00;99125.41;5029556;28;20371;-67
2022/01/25 03:54:34;;;;;;;195.05;22.48;;;-0.30;99.90;;;-1.43;100.00;99120.56;5030060;28;20139;-68
2022/01/25 03:57:01;;;;;;;258.77;25.13;;;-0.30;99.90;;;-1.48;100.00;99122.09;5026129;28;20136;-67
2022/01/25 03:59:29;;;;;;;442.92;33.30;;;-0.20;99.90;;;-1.57;100.00;99120.16;5027437;28;20466;-68
2022/01/25 04:01:56;;;;;;;521.70;39.08;;;-0.30;99.90;;;-1.66;100.00;99119.88;5028984;28;20455;-67
2022/01/25 04:04:26;;;;;;;420.27;35.63;;;-0.30;99.90;;;-1.57;100.00;99121.84;5028392;28;20057;-68
2022/01/25 04:06:54;;;;;;;454.17;34.75;;;-0.20;99.90;;;-1.71;100.00;99122.28;5029974;28;20123;-68
2022/01/25 04:09:21;;;;;;;542.13;36.17;;;-0.30;99.90;;;-1.76;100.00;99123.78;5029629;28;20506;-67
2022/01/25 04:11:49;;;;;;;464.77;31.52;;;-0.40;99.90;;;-1.76;100.00;99130.56;5028262;28;20060;-68
2022/01/25 04:14:16;;;;;;;467.80;34.08;;;-0.50;99.90;;;-1.78;100.00;99127.09;5028817;28;20111;-68
2022/01/25 04:16:59;;;;;;;471.05;37.80;;;-0.50;99.90;;;-1.78;100.00;99127.09;5029408;28;20088;-67
2022/01/25 04:27:30;;;;;;;420.13;29.23;;;-0.50;99.90;;;-1.59;100.00;99113.28;5029734;28;20052;-68
2022/01/25 04:29:58;;;;;;;358.50;26.27;;;-0.40;99.90;;;-1.57;100.00;99115.06;5026557;28;20469;-67
2022/01/25 04:32:33;;;;;;;463.70;31.75;;;-0.40;99.90;;;-1.65;100.00;99116.50;5026725;28;20049;-68
2022/01/25 04:35:13;;;;;;;170.70;16.35;;;-0.40;99.90;;;-1.64;100.00;99118.22;5029348;28;20100;-68
2022/01/25 04:54:00;;;;;;;241.32;21.42;;;-0.50;99.90;;;-1.84;100.00;99106.56;5028735;28;20164;-67
2022/01/25 04:56:35;;;;;;;273.10;23.27;;;-0.60;99.90;;;-2.03;100.00;99100.91;5026741;28;20132;-68
2022/01/25 04:59:21;;;;;;;65.50;14.30;;;-0.60;99.90;;;-1.87;100.00;99103.91;5027514;28;20046;-68
2022/01/25 05:01:51;;;;;;;124.75;16.58;;;-0.60;99.90;;;-1.73;100.00;99098.44;5027066;28;20132;-68
2022/01/25 05:04:25;;;;;;;159.13;19.55;;;-0.50;99.90;;;-1.87;100.00;99097.16;5025432;28;20045;-68
2022/01/25 05:06:56;;;;;;;329.13;24.67;;;-0.60;99.90;;;-2.00;100.00;99103.53;5024764;28;20119;-67
2022/01/25 05:09:28;;;;;;;288.08;22.08;;;-0.60;99.90;;;-2.06;100.00;99110.97;5026765;28;20077;-67
2022/01/25 05:11:58;;;;;;;218.07;21.63;;;-0.70;99.90;;;-2.07;100.00;99109.25;5027368;28;20081;-67
2022/01/25 05:14:32;;;;;;;142.35;17.63;;;-0.70;99.90;;;-1.96;100.00;99114.66;5024475;28;20057;-67
2022/01/25 05:17:01;;;;;;;43.55;13.23;;;-0.70;99.90;;;-1.86;100.00;99108.19;5026457;28;20046;-67
2022/01/25 05:24:38;;;;;;;267.42;22.17;;;-0.70;99.90;;;-2.14;100.00;99103.09;5027792;28;20073;-67
2022/01/25 05:27:07;;;;;;;148.15;17.67;;;-0.80;99.90;;;-2.00;100.00;99106.06;5027396;28;20080;-67
2022/01/25 05:29:35;;;;;;;262.58;20.92;;;-0.70;99.90;;;-1.97;100.00;99095.97;5027095;28;20136;-67
2022/01/25 05:32:05;;;;;;;137.98;16.83;;;-0.70;99.90;;;-2.00;100.00;99098.44;5009868;28;20128;-68
2022/01/25 05:34:32;;;;;;;45.08;11.77;;;-0.70;99.90;;;-1.84;100.00;99104.88;5026943;28;20053;-68
2022/01/25 05:37:00;;;;;;;45.70;10.95;;;-0.70;99.90;;;-1.73;100.00;99095.03;5028162;28;20459;-67
2022/01/25 05:39:31;;;;;;;39.08;9.95;;;-0.60;99.90;;;-1.66;100.00;99099.50;5026747;28;20068;-68
2022/01/25 05:47:31;;;;;;;137.20;14.50;;;-0.50;99.90;;;-2.33;100.00;99098.22;5027372;28;20049;-69
2022/01/25 05:49:59;;;;;;;227.98;18.88;;;-0.60;99.90;;;-2.55;100.00;99099.19;5027436;28;20053;-67
2022/01/25 05:52:27;;;;;;;379.27;28.45;;;-0.80;99.90;;;-2.64;100.00;99114.13;5027558;28;20124;-67
2022/01/25 05:54:56;;;;;;;36.58;13.02;;;-0.90;99.90;;;-2.32;100.00;99117.75;5027791;28;20049;-67
2022/01/25 05:57:23;;;;;;;219.35;20.17;;;-1.00;99.90;;;-2.38;100.00;99122.63;5028200;28;20271;-67
2022/01/25 05:59:50;;;;;;;130.05;14.25;;;-1.00;99.90;;;-2.36;100.00;99116.78;5027600;28;20101;-68
2022/01/25 06:02:19;;;;;;;234.52;35.08;;;-1.00;99.90;;;-2.35;100.00;99123.59;5027786;28;20046;-68
2022/01/25 06:04:47;;;;;;;356.80;65.80;;;-1.00;99.90;;;-2.46;100.00;99124.91;5026369;28;20385;-68
2022/01/25 06:07:15;;;;;;;179.45;41.85;;;-1.10;99.90;;;-2.47;100.00;99135.88;5027837;28;20553;-68
2022/01/25 06:09:42;;;;;;;196.05;25.05;;;-1.20;99.90;;;-2.57;100.00;99129.63;5027665;28;20045;-67
2022/01/25 06:12:10;;;;;;;310.13;33.63;;;-1.20;99.90;;;-2.61;100.00;99137.97;5027654;28;20087;-68
2022/01/25 06:14:38;;;;;;;353.80;26.30;;;-1.30;99.90;;;-2.53;100.00;99136.56;5027036;28;20084;-67
2022/01/25 06:17:05;;;;;;;238.02;22.60;;;-1.20;99.90;;;-2.45;100.00;99135.94;5027086;28;20561;-68
2022/01/25 06:19:33;;;;;;;245.52;20.55;;;-1.20;99.90;;;-2.36;100.00;99134.56;5026527;28;20159;-67
2022/01/25 06:22:00;;;;;;;231.48;18.58;;;-1.10;99.90;;;-2.32;100.00;99128.78;5027097;28;20088;-68
2022/01/25 06:24:26;;;;;;;536.83;33.28;;;-1.10;99.90;;;-2.42;100.00;99129.28;5026308;28;20569;-68
2022/01/25 06:26:53;;;;;;;511.08;29.67;;;-1.20;99.90;;;-2.53;100.00;99123.84;5027494;28;20144;-67
2022/01/25 06:29:20;;;;;;;439.73;27.02;;;-1.20;99.90;;;-2.53;100.00;99134.03;5026639;28;20358;-67
2022/01/25 06:31:48;;;;;;;441.38;26.90;;;-1.20;99.90;;;-2.56;100.00;99140.66;5021890;28;20077;-68
2022/01/25 06:34:16;;;;;;;534.47;29.90;;;-1.30;99.90;;;-2.67;100.00;99144.50;5026368;28;20041;-69
2022/01/25 06:36:45;;;;;;;473.58;32.03;;;-1.40;99.90;;;-2.76;100.00;99142.50;5026465;28;20398;-67
2022/01/25 06:39:12;;;;;;;390.30;25.42;;;-1.40;99.90;;;-2.67;100.00;99136.88;5027763;28;20045;-67
2022/01/25 06:41:39;;;;;;;107.95;14.55;;;-1.40;99.90;;;-2.51;100.00;99139.13;5028814;28;20082;-67
2022/01/25 06:44:06;;;;;;;225.43;20.08;;;-1.30;99.90;;;-2.42;100.00;99136.91;5029901;28;20572;-67
2022/01/25 06:46:34;;;;;;;226.18;16.50;;;-1.30;99.90;;;-2.43;100.00;99124.16;5030287;28;20042;-68
2022/01/25 06:49:01;;;;;;;120.43;15.25;;;-1.30;99.90;;;-2.21;100.00;99124.06;5029462;28;20077;-68
2022/01/25 06:51:30;;;;;;;114.80;15.32;;;-1.20;99.90;;;-2.14;100.00;99127.69;5030437;28;20091;-68
2022/01/25 06:53:57;;;;;;;164.63;15.30;;;-1.10;99.90;;;-2.15;100.00;99115.75;5029639;28;20081;-68
2022/01/25 06:56:24;;;;;;;137.43;14.23;;;-1.10;99.90;;;-2.06;100.00;99117.75;5029278;28;20089;-68
2022/01/25 06:58:51;;;;;;;188.20;18.83;;;-1.00;99.90;;;-2.56;100.00;99116.09;5030028;28;20133;-67
2022/01/25 07:01:18;;;;;;;181.07;24.00;;;-1.00;99.90;;;-2.86;100.00;99120.13;5030910;28;20117;-68
2022/01/25 07:03:45;;;;;;;234.73;27.48;;;-1.10;99.90;;;-3.20;100.00;99121.44;5030511;28;20057;-67
2022/01/25 07:06:13;;;;;;;231.75;26.13;;;-1.30;99.90;;;-3.08;100.00;99128.66;5030656;28;20045;-68
2022/01/25 07:08:44;;;;;;;254.20;29.20;;;-1.50;99.90;;;-3.08;100.00;99132.06;5030306;28;20518;-68
2022/01/25 07:11:13;;;;;;;117.90;21.10;;;-1.50;99.90;;;-3.03;100.00;99133.09;5029853;28;20057;-68
2022/01/25 07:13:40;;;;;;;323.85;33.55;;;-1.50;99.90;;;-2.95;100.00;99134.22;5029595;28;20053;-67
2022/01/25 07:16:10;;;;;;;110.88;18.65;;;-1.50;99.90;;;-2.70;100.00;99129.16;5030896;28;20053;-68
2022/01/25 07:18:37;;;;;;;122.47;17.10;;;-1.50;99.90;;;-2.71;100.00;99135.94;5029897;28;20136;-68
2022/01/25 07:21:04;;;;;;;131.95;21.70;;;-1.50;99.90;;;-2.55;100.00;99130.56;5029827;28;20132;-68
2022/01/25 07:23:31;;;;;;;112.85;18.35;;;-1.40;99.90;;;-2.68;100.00;99138.56;5027100;28;20136;-67
2022/01/25 07:25:58;;;;;;;166.38;18.23;;;-1.40;99.90;;;-2.50;100.00;99127.31;5030167;28;20053;-67
2022/01/25 07:28:25;;;;;;;226.20;26.73;;;-1.30;99.90;;;-2.51;100.00;99134.03;5029382;28;20418;-68
2022/01/25 07:30:52;;;;;;;122.97;21.13;;;-1.30;99.90;;;-2.50;100.00;99148.50;5030022;28;20468;-68
2022/01/25 07:33:22;;;;;;;122.80;17.75;;;-1.20;99.90;;;-2.40;100.00;99131.88;5027862;28;20088;-68
2022/01/25 07:36:00;;;;;;;66.68;16.08;;;-1.20;99.90;;;-2.44;100.00;99135.13;5035325;28;20214;-68
2022/01/25 07:38:29;;;;;;;75.53;16.05;;;-1.10;99.90;;;-2.26;100.00;99133.19;5036075;28;20049;-68
2022/01/25 07:41:08;;;;;;;39.05;12.70;;;-1.10;99.90;;;-2.28;100.00;99137.41;5028898;28;20054;-67
2022/01/25 07:43:37;;;;;;;81.63;15.23;;;-1.10;99.90;;;-2.12;100.00;99141.31;5026695;28;20068;-68
2022/01/25 07:46:05;;;;;;;37.20;10.18;;;-1.00;99.90;;;-2.06;100.00;99135.53;5027698;28;20160;-68
2022/01/25 07:48:32;;;;;;;150.55;18.52;;;-0.90;99.90;;;-2.04;100.00;99126.28;5028097;28;20045;-67
2022/01/25 07:51:07;;;;;;;222.75;17.02;;;-0.80;99.90;;;-2.02;100.00;99135.69;5028404;28;20403;-67
2022/01/25 07:53:37;;;;;;;184.57;18.70;;;-0.80;99.90;;;-2.07;100.00;99137.22;5028744;28;20164;-67
2022/01/25 07:56:04;;;;;;;54.55;11.43;;;-0.80;99.90;;;-1.90;100.00;99131.00;5028538;28;20434;-68
2022/01/25 07:58:31;;;;;;;38.17;10.00;;;-0.70;99.90;;;-1.68;100.00;99136.78;5024937;28;20061;-67
2022/01/25 08:00:59;;;;;;;424.08;32.80;;;-0.70;99.90;;;-2.37;100.00;99132.00;5028951;28;20057;-67
2022/01/25 08:03:26;;;;;;;48.25;11.18;;;-0.70;99.90;;;-2.19;100.00;99132.63;5025409;28;20042;-67
2022/01/25 08:06:10;;;;;;;324.05;21.13;;;-0.80;99.90;;;-2.53;100.00;99130.63;5028517;28;20470;-68
2022/01/25 08:08:52;;;;;;;216.75;21.77;;;-0.80;99.90;;;-3.03;100.00;99125.47;5010901;28;20059;-67
2022/01/25 08:11:37;;;;;;;402.50;34.70;;;-1.00;99.90;;;-3.22;100.00;99139.16;5026154;28;20038;-68
2022/01/25 08:14:14;;;;;;;505.48;40.25;;;-1.10;99.90;;;-3.30;100.00;99135.50;5026571;28;20045;-68
2022/01/25 08:16:55;;;;;;;248.68;23.98;;;-1.20;99.90;;;-3.21;100.00;99134.97;5026653;28;20057;-67
2022/01/25 08:19:48;;;;;;;472.67;33.42;;;-1.30;99.90;;;-3.36;100.00;99137.78;4967742;28;20050;-67
2022/01/25 08:22:25;;;;;;;428.80;33.67;;;-1.40;99.90;;;-3.29;100.00;99143.97;4965039;28;20055;-67
2022/01/25 08:25:19;;;;;;;289.63;26.38;;;-1.40;99.90;;;-3.31;100.00;99148.97;4973431;28;20137;-68
2022/01/25 08:27:49;;;;;;;320.15;27.08;;;-1.40;99.90;;;-3.29;100.00;99149.91;4959026;28;20101;-68
2022/01/25 08:30:28;;;;;;;154.80;18.02;;;-1.40;99.90;;;-3.14;100.00;99136.91;4977474;28;20065;-68
2022/01/25 08:33:12;;;;;;;479.17;36.50;;;-1.40;99.90;;;-3.19;100.00;99143.50;4909557;29;20051;-68
2022/01/25 08:35:53;;;;;;;386.83;25.77;;;-1.30;99.90;;;-3.09;100.00;99143.03;4872109;29;20504;-68
2022/01/25 08:38:21;;;;;;;333.33;26.83;;;-1.30;99.90;;;-2.98;100.00;99139.19;4907929;29;20541;-68
2022/01/25 08:41:29;;;;;;;400.80;24.27;;;-1.30;99.90;;;-3.08;100.00;99151.50;4877826;29;20056;-67
2022/01/25 08:44:37;;;;;;;267.35;23.00;;;-1.30;99.90;;;-2.86;100.00;99150.63;4885383;29;20138;-68
2022/01/25 08:47:08;;;;;;;494.63;32.75;;;-1.20;99.90;;;-2.92;100.00;99155.47;4887922;29;20055;-68
2022/01/25 08:49:52;;;;;;;401.15;30.20;;;-1.10;99.90;;;-2.69;100.00;99159.72;4870562;29;20073;-68
2022/01/25 08:52:39;;;;;;;149.23;16.33;;;-1.00;99.90;;;-2.37;100.00;99159.97;4812170;29;20093;-68
2022/01/25 08:55:30;;;;;;;86.13;15.88;;;-0.90;99.90;;;-1.84;100.00;99160.88;4813803;29;20143;-67
2022/01/25 08:58:03;;;;;;;98.85;18.17;;;-0.60;99.90;;;-1.63;100.00;99158.13;4833179;29;20592;-67
2022/01/25 09:00:30;;;;;;;51.45;13.50;;;-0.40;99.90;;;-1.22;100.00;99161.09;4846962;29;20492;-67
2022/01/25 09:02:59;;;;;;;149.20;19.83;;;-0.20;99.90;;;-1.14;100.00;99156.19;4863768;29;20145;-67
2022/01/25 09:05:27;;;;;;;38.08;14.50;;;0.00;99.90;;;-1.16;100.00;99156.19;4870764;29;20064;-68
2022/01/25 09:07:57;;;;;;;26.40;12.05;;;0.10;99.90;;;-0.92;100.00;99156.00;4870356;29;20164;-68
2022/01/25 09:10:25;;;;;;;57.05;11.80;;;0.20;99.90;;;-1.02;100.00;99151.47;4905732;28;20063;-68
2022/01/25 09:12:53;;;;;;;87.35;13.68;;;0.30;99.90;;;-0.56;100.00;99152.75;4945139;29;20186;-68
2022/01/25 09:15:20;;;;;;;131.55;13.38;;;0.40;99.90;;;-0.58;100.00;99156.09;4944331;28;20119;-68
2022/01/25 09:17:49;;;;;;;50.88;11.48;;;0.50;99.90;;;-0.67;100.00;99149.91;4944838;29;20194;-68
2022/01/25 09:20:16;;;;;;;69.38;13.85;;;0.60;99.90;;;-0.69;100.00;99154.09;4946055;28;20135;-68
2022/01/25 09:22:44;;;;;;;295.90;23.25;;;0.70;99.90;;;-0.65;100.00;99157.59;4947056;29;20468;-68
2022/01/25 09:25:27;;;;;;;;;;;0.70;99.90;;;-0.37;100.00;99160.91;4947270;29;20051;-68
2022/01/25 09:27:54;;;;;;;50.05;12.27;;;0.80;99.90;;;-0.38;100.00;99156.63;4947233;29;19964;-68
2022/01/25 09:30:21;;;;;;;141.23;14.88;;;0.80;99.90;;;-0.19;100.00;99163.91;5004945;28;20073;-67
2022/01/25 09:32:49;;;;;;;57.80;13.05;;;0.80;99.90;;;0.16;100.00;99158.81;5026674;28;20132;-68
2022/01/25 09:35:17;;;;;;;47.50;14.18;;;0.90;99.90;;;0.38;100.00;99152.53;5028430;28;20102;-68
2022/01/25 09:37:44;;;;;;;63.22;14.07;;;1.10;99.90;;;0.33;100.00;99155.00;5025965;28;20049;-69
2022/01/25 09:40:12;;;;;;;131.45;18.35;;;1.20;99.90;;;-0.10;100.00;99151.38;5026804;28;20073;-68
2022/01/25 09:42:40;;;;;;;197.50;20.70;;;1.20;99.90;;;-0.19;100.00;99151.16;5027695;28;20128;-68
2022/01/25 09:45:08;;;;;;;50.60;14.98;;;1.10;99.90;;;0.06;100.00;99149.22;5025598;28;20092;-69
2022/01/25 09:47:39;;;;;;;39.67;13.75;;;1.10;99.90;;;0.49;100.00;99151.09;5026916;28;20155;-68
2022/01/25 09:50:07;;;;;;;201.13;22.70;;;1.30;99.90;;;-0.23;100.00;99146.78;5028756;28;20513;-68
2022/01/25 09:52:35;;;;;;;80.88;19.00;;;1.30;99.90;;;-0.19;100.00;99146.06;5028522;28;20148;-69
2022/01/25 09:55:11;;;;;;;93.95;19.08;;;1.30;99.90;;;-0.47;100.00;99145.34;5029558;28;20080;-68
2022/01/25 09:57:38;;;;;;;54.72;17.35;;;1.20;99.90;;;0.02;100.00;99148.28;5028159;28;20072;-68
2022/01/25 10:00:10;;;;;;;138.07;18.67;;;1.10;99.90;;;-0.04;100.00;99151.56;5025280;28;20425;-68
2022/01/25 10:02:55;;;;;;;60.42;14.25;;;1.20;99.90;;;0.50;100.00;99152.84;5025533;28;20111;-68
2022/01/25 10:05:35;;;;;;;96.78;18.48;;;1.30;99.90;;;0.06;100.00;99147.53;5025252;28;20068;-68
2022/01/25 10:08:14;;;;;;;69.60;18.35;;;1.30;99.90;;;0.02;100.00;99155.06;5027483;28;20077;-68
2022/01/25 10:11:13;;;;;;;78.53;17.38;;;1.40;99.90;;;0.35;100.00;99145.69;5027101;28;20443;-68
2022/01/25 10:13:47;;;;;;;69.95;16.15;;;1.60;99.90;;;0.52;100.00;99153.72;5026398;28;20054;-68
2022/01/25 10:16:20;;;;;;;152.32;20.52;;;1.80;99.90;;;0.51;100.00;99146.03;5030480;28;20077;-68
2022/01/25 10:18:50;;;;;;;180.82;21.08;;;1.90;99.90;;;0.47;100.00;99150.19;5030885;28;20056;-67
2022/01/25 10:21:32;;;;;;;47.17;14.60;;;1.80;99.90;;;0.85;100.00;99155.31;5032223;28;20373;-69
2022/01/25 10:24:24;;;;;;;117.18;21.70;;;1.90;99.90;;;0.88;100.00;99144.28;5032844;28;20140;-68
2022/01/25 10:26:55;;;;;;;204.25;21.35;;;2.00;99.90;;;0.67;100.00;99152.34;5031960;28;20080;-69
2022/01/25 10:29:29;;;;;;;156.63;22.02;;;2.00;99.90;;;0.59;100.00;99149.59;5031889;28;20049;-68
2022/01/25 10:32:09;;;;;;;69.05;17.40;;;2.00;99.90;;;0.66;100.00;99146.34;5043069;28;20095;-69
2022/01/25 10:34:44;;;;;;;117.25;18.17;;;2.00;99.90;;;0.92;100.00;99146.09;5045476;28;20049;-68
2022/01/25 10:37:22;;;;;;;169.00;20.55;;;2.10;99.90;;;0.67;100.00;99147.25;5037756;28;20430;-68
2022/01/25 10:39:53;;;;;;;112.55;18.95;;;2.00;99.90;;;0.80;100.00;99145.00;5034944;28;20052;-67
2022/01/25 10:42:19;;;;;;;60.45;17.23;;;2.10;99.90;;;1.20;100.00;99142.38;5035331;28;20151;-67
2022/01/25 10:44:55;;;;;;;54.92;16.70;;;2.30;99.90;;;1.27;100.00;99145.94;5036181;28;20041;-68
2022/01/25 10:47:50;;;;;;;35.70;15.77;;;2.50;99.90;;;1.38;100.00;99139.31;5035460;28;20155;-68
2022/01/25 10:50:18;;;;;;;51.58;16.08;;;2.50;99.90;;;1.62;100.00;99138.91;5035259;28;20152;-67
2022/01/25 10:52:47;;;;;;;145.27;19.05;;;2.60;99.90;;;1.35;100.00;99141.84;5035728;28;20050;-67
2022/01/25 10:55:16;;;;;;;71.50;15.88;;;2.70;99.90;;;1.14;100.00;99139.69;5035024;28;20061;-68
2022/01/25 10:57:56;;;;;;;53.75;15.90;;;2.60;99.90;;;1.61;100.00;99126.97;5034368;28;20057;-68
2022/01/25 11:00:37;;;;;;;53.58;15.00;;;2.70;99.90;;;1.64;100.00;99127.88;5035317;28;20357;-67
2022/01/25 11:03:05;;;;;;;142.75;19.88;;;2.80;99.90;;;1.71;100.00;99125.41;5026375;28;20041;-68
2022/01/25 11:05:36;;;;;;;58.92;17.63;;;2.90;99.90;;;1.67;100.00;99127.06;5038183;28;20215;-67
2022/01/25 11:08:16;;;;;;;133.18;20.13;;;2.80;99.90;;;1.92;100.00;99128.38;5031516;28;20084;-68
2022/01/25 11:10:58;;;;;;;227.65;28.65;;;2.80;99.90;;;1.45;100.00;99119.00;5032166;28;20128;-68
2022/01/25 11:16:05;;;;;;;52.08;17.50;;;2.60;99.90;;;1.44;100.00;99117.28;5033283;28;20136;-68
2022/01/25 11:18:33;;;;;;;49.35;17.02;;;2.60;99.90;;;1.67;100.00;99120.25;5030195;28;20068;-68
2022/01/25 11:21:04;;;;;;;30.55;14.15;;;2.50;99.90;;;1.74;100.00;99115.25;5031902;28;20046;-68
2022/01/25 11:23:35;;;;;;;29.30;14.27;;;2.70;99.90;;;1.75;100.00;99112.69;5030420;28;20056;-67
2022/01/25 11:26:07;;;;;;;42.92;16.88;;;2.80;99.90;;;1.95;100.00;99118.16;5031310;28;20132;-67
2022/01/25 11:28:37;;;;;;;77.53;19.08;;;3.10;99.90;;;1.59;100.00;99123.50;5028014;28;20329;-67
2022/01/25 11:31:13;;;;;;;77.18;17.70;;;3.20;99.90;;;1.53;100.00;99121.72;5030412;28;20057;-68
2022/01/25 11:33:44;;;;;;;73.90;16.67;;;3.10;99.90;;;1.55;100.00;99117.47;5029702;28;20057;-67
2022/01/25 11:36:12;;;;;;;34.17;16.60;;;3.00;99.90;;;1.46;100.00;99117.31;5028848;28;20068;-68
2022/01/25 11:38:44;;;;;;;54.10;15.77;;;2.90;99.90;;;1.54;100.00;99117.44;5028529;28;20072;-68
2022/01/25 11:41:14;;;;;;;63.75;16.70;;;2.80;99.90;;;1.80;100.00;99117.91;5029758;28;20620;-68
2022/01/25 11:44:09;;;;;;;36.40;15.18;;;2.90;99.90;;;1.75;100.00;99116.97;5011129;28;20137;-68
2022/01/25 11:46:42;;;;;;;43.25;14.88;;;3.00;99.90;;;1.79;100.00;99105.94;5030307;28;20050;-67
2022/01/25 11:49:17;;;;;;;75.43;18.50;;;3.10;99.90;;;1.93;100.00;99104.47;5027696;28;20576;-67
2022/01/25 11:52:12;;;;;;;40.67;16.00;;;3.10;99.90;;;1.63;100.00;99099.69;5030477;28;20080;-68
2022/01/25 11:54:41;;;;;;;36.88;16.35;;;3.00;99.90;;;1.59;100.00;99103.88;5027275;28;20239;-67
2022/01/25 11:57:28;;;;;;;35.38;16.02;;;3.10;99.90;;;1.88;100.00;99106.09;5028936;28;20106;-68
2022/01/25 11:59:58;;;;;;;31.20;15.95;;;3.20;99.90;;;1.90;100.00;99106.13;5029256;28;20376;-68
2022/01/25 12:02:40;;;;;;;37.13;17.05;;;3.30;99.90;;;1.77;100.00;99102.50;5031249;28;20079;-68
2022/01/25 12:05:18;;;;;;;53.55;18.52;;;3.30;99.90;;;2.06;100.00;99103.84;5026974;28;20124;-68
2022/01/25 12:08:10;;;;;;;54.63;17.40;;;3.30;99.90;;;1.75;100.00;99099.91;5027122;28;20076;-67
2022/01/25 12:10:47;;;;;;;44.10;16.50;;;3.30;99.90;;;1.75;100.00;99096.47;5030329;28;20047;-67
2022/01/25 12:13:29;;;;;;;28.77;15.90;;;3.30;99.90;;;1.93;100.00;99089.09;5028432;28;20095;-66
2022/01/25 12:16:26;;;;;;;49.70;16.48;;;3.30;99.90;;;1.64;100.00;99091.16;5031944;28;20140;-67
2022/01/25 12:19:05;;;;;;;42.13;16.35;;;3.30;99.90;;;1.85;100.00;99083.00;5026746;28;20089;-67
2022/01/25 12:21:49;;;;;;;31.98;15.90;;;3.40;99.90;;;1.81;100.00;99091.47;5029615;28;20359;-67
2022/01/25 12:24:31;;;;;;;95.78;19.08;;;3.30;99.90;;;1.80;100.00;99077.81;5030223;28;20069;-66
2022/01/25 12:27:15;;;;;;;120.63;21.02;;;3.30;99.90;;;1.82;100.00;99082.94;5027902;28;20084;-66